Terminal Aerodrome Forecast
Issued by NWS Topeka, KS

Home | Current Version | Previous Version | Text Only | Print | Product List | Glossary Off
Versions: 1 2 3 4 5 6 7 8 9 10 11 12 13 14 15 16 17 18 19 20 21 22 23

024
FTUS43 KTOP 162320
TAFTOP
TAF
KTOP 162320Z 1700/1724 17004KT P6SM BKN150
     FM171000 18007KT P6SM SCT015 BKN040
     FM171500 28012G18KT P6SM SCT130=

USA.gov is the U.S. government's official web portal to all federal, state and local government web resources and services.